createdAt,value
2024-01-15T00:00:01.693Z,99124.13
2024-01-15T00:02:30.013Z,99114.56
2024-01-15T00:04:59.711Z,99114.56
2024-01-15T00:07:27.960Z,99113.53
2024-01-15T00:09:56.161Z,99110.34
2024-01-15T00:12:24.459Z,99117.78
2024-01-15T00:14:53.096Z,99104.81
2024-01-15T00:17:21.353Z,99112.22
2024-01-15T00:19:49.825Z,99108.00
2024-01-15T00:22:20.089Z,99102.16
2024-01-15T00:24:48.478Z,99100.84
2024-01-15T00:27:16.783Z,99108.78
2024-01-15T00:29:45.011Z,99106.44
2024-01-15T00:32:13.367Z,99102.97
2024-01-15T00:34:42.372Z,99108.25
2024-01-15T00:37:10.664Z,99104.81
2024-01-15T00:39:40.393Z,99098.19
2024-01-15T00:42:08.924Z,99098.72
2024-01-15T00:44:37.410Z,99095.56
2024-01-15T00:47:05.828Z,99099.53
2024-01-15T00:49:34.254Z,99095.56
2024-01-15T00:52:03.652Z,99092.91
2024-01-15T00:54:31.944Z,99090.25
2024-01-15T00:57:01.620Z,99090.25
2024-01-15T00:59:29.865Z,99079.94
2024-01-15T01:01:58.075Z,99084.69
2024-01-15T01:04:26.346Z,99076.50
2024-01-15T01:06:54.562Z,99088.91
2024-01-15T01:09:22.854Z,99085.47
2024-01-15T01:11:51.250Z,99077.53
2024-01-15T01:14:21.028Z,99075.69
2024-01-15T01:16:49.301Z,99076.22
2024-01-15T01:19:18.007Z,99075.44
2024-01-15T01:21:46.539Z,99077.53
2024-01-15T01:24:14.920Z,99072.78
2024-01-15T01:26:43.212Z,99070.97
2024-01-15T01:29:11.568Z,99074.16
2024-01-15T01:31:45.361Z,99075.47
2024-01-15T01:34:16.626Z,99076.25
2024-01-15T01:36:45.256Z,99072.78
2024-01-15T01:39:13.979Z,99061.16
2024-01-15T01:41:42.462Z,99076.53
2024-01-15T01:44:10.841Z,99079.16
2024-01-15T01:46:41.872Z,99074.16
2024-01-15T01:49:12.548Z,99070.44
2024-01-15T01:51:41.440Z,99067.00
2024-01-15T01:54:13.996Z,99061.69
2024-01-15T01:56:42.954Z,99056.13
2024-01-15T01:59:13.635Z,99052.44
2024-01-15T02:01:43.529Z,99058.00
2024-01-15T02:04:12.399Z,99051.63
2024-01-15T02:06:40.865Z,99050.56
2024-01-15T02:09:10.841Z,99060.13
2024-01-15T02:11:39.359Z,99056.16
2024-01-15T02:14:07.639Z,99061.72
2024-01-15T02:16:35.900Z,99054.84
2024-01-15T02:19:05.734Z,99061.72
2024-01-15T02:21:34.647Z,99051.66
2024-01-15T02:24:04.540Z,99052.72
2024-01-15T02:26:37.280Z,99053.22
2024-01-15T02:29:07.102Z,99044.78
2024-01-15T02:31:35.405Z,99054.00
2024-01-15T02:34:04.040Z,99056.66
2024-01-15T02:36:32.564Z,99050.88
2024-01-15T02:39:00.815Z,99051.66
2024-01-15T02:41:30.466Z,99051.13
2024-01-15T02:43:58.693Z,99042.69
2024-01-15T02:46:26.857Z,99051.16
2024-01-15T02:48:55.204Z,99055.88
2024-01-15T02:51:24.128Z,99053.78
2024-01-15T02:53:52.947Z,99043.22
2024-01-15T02:56:21.182Z,99044.53
2024-01-15T02:58:50.804Z,99039.78
2024-01-15T03:01:21.694Z,99044.28
2024-01-15T03:03:50.131Z,99033.72
2024-01-15T03:06:18.469Z,99031.56
2024-01-15T03:08:46.769Z,99038.47
2024-01-15T03:11:15.064Z,99040.03
2024-01-15T03:13:43.380Z,99029.97
2024-01-15T03:16:13.058Z,99029.44
2024-01-15T03:18:41.458Z,99044.00
2024-01-15T03:21:09.822Z,99046.66
2024-01-15T03:23:38.099Z,99038.72
2024-01-15T03:26:06.408Z,99028.91
2024-01-15T03:28:34.665Z,99026.81
2024-01-15T03:31:03.124Z,99030.53
2024-01-15T03:33:32.933Z,99031.56
2024-01-15T03:36:01.820Z,99018.84
2024-01-15T03:38:30.977Z,99006.44
2024-01-15T03:40:59.279Z,99010.41
2024-01-15T03:43:28.526Z,99031.59
2024-01-15T03:45:56.929Z,99029.47
2024-01-15T03:48:25.358Z,99036.88
2024-01-15T03:50:55.021Z,99040.56
2024-01-15T03:53:23.355Z,99046.13
2024-01-15T03:55:51.830Z,99038.47
2024-01-15T03:58:20.161Z,99030.53
2024-01-15T04:00:48.920Z,99034.50
2024-01-15T04:03:17.464Z,99037.69
2024-01-15T04:05:46.026Z,99019.41
2024-01-15T04:08:15.774Z,99024.69
2024-01-15T04:10:43.995Z,99024.69
2024-01-15T04:13:12.229Z,99019.94
2024-01-15T04:15:40.592Z,99020.19
2024-01-15T04:18:09.020Z,99030.00
2024-01-15T04:20:37.822Z,99037.97
2024-01-15T04:23:06.392Z,99039.00
2024-01-15T04:25:36.097Z,99024.19
2024-01-15T04:28:04.472Z,99021.53
2024-01-15T04:30:32.803Z,99010.69
2024-01-15T04:33:01.188Z,99012.03
2024-01-15T04:35:29.477Z,99012.53
2024-01-15T04:37:57.659Z,98999.84
2024-01-15T04:40:28.741Z,99009.91
2024-01-15T04:42:58.483Z,99008.56
2024-01-15T04:45:29.757Z,99006.72
2024-01-15T04:47:59.214Z,99015.47
2024-01-15T04:50:27.933Z,99003.28
2024-01-15T04:52:56.193Z,98999.84
2024-01-15T04:55:24.606Z,98990.06
2024-01-15T04:57:52.814Z,99000.38
2024-01-15T05:00:22.519Z,99003.00
2024-01-15T05:02:50.840Z,99001.19
2024-01-15T05:05:19.396Z,98991.91
2024-01-15T05:07:47.740Z,98995.63
2024-01-15T05:10:16.204Z,98992.69
2024-01-15T05:12:44.476Z,98979.22
2024-01-15T05:15:12.878Z,98967.06
2024-01-15T05:18:00.442Z,98971.03
2024-01-15T05:20:28.837Z,98970.72
2024-01-15T05:22:57.151Z,98967.56
2024-01-15T05:25:25.447Z,98952.75
2024-01-15T05:27:53.793Z,98957.25
2024-01-15T05:30:22.358Z,98960.16
2024-01-15T05:32:52.338Z,98957.50
2024-01-15T05:35:20.733Z,98952.50
2024-01-15T05:37:49.678Z,98956.72
2024-01-15T05:40:18.157Z,98945.88
2024-01-15T05:42:46.479Z,98953.84
2024-01-15T05:45:15.208Z,98958.31
2024-01-15T05:47:43.572Z,98961.47
2024-01-15T05:50:14.195Z,98966.00
2024-01-15T05:52:42.470Z,98976.00
2024-01-15T05:55:11.261Z,98974.13
2024-01-15T05:57:39.844Z,98979.16
2024-01-15T06:00:10.252Z,98975.44
2024-01-15T06:02:40.706Z,98980.50
2024-01-15T06:05:09.376Z,98987.38
2024-01-15T06:07:39.230Z,98977.06
2024-01-15T06:10:08.788Z,98971.78
2024-01-15T06:12:37.195Z,98954.84
2024-01-15T06:15:06.127Z,98959.59
2024-01-15T06:17:34.509Z,98964.59
2024-01-15T06:20:02.815Z,98967.00
2024-01-15T06:22:31.210Z,98983.16
2024-01-15T06:25:00.915Z,98991.34
2024-01-15T06:27:29.354Z,99003.50
2024-01-15T06:29:58.168Z,99004.03
2024-01-15T06:32:26.894Z,98994.50
2024-01-15T06:34:55.237Z,98990.56
2024-01-15T06:37:23.586Z,98995.56
2024-01-15T06:39:52.029Z,99000.88
2024-01-15T06:42:23.255Z,98997.19
2024-01-15T06:44:51.718Z,98986.84
2024-01-15T06:47:20.025Z,98985.81
2024-01-15T06:49:48.849Z,98992.16
2024-01-15T06:52:17.314Z,98976.53
2024-01-15T06:54:46.334Z,98975.75
2024-01-15T06:57:14.726Z,98981.56
2024-01-15T06:59:44.510Z,98979.97
2024-01-15T07:02:13.450Z,98979.19
2024-01-15T07:04:43.648Z,98970.16
2024-01-15T07:07:12.214Z,98973.84
2024-01-15T07:09:40.554Z,98981.25
2024-01-15T07:12:09.108Z,98982.84
2024-01-15T07:14:37.752Z,98969.31
2024-01-15T07:17:07.674Z,98968.22
2024-01-15T07:19:35.980Z,98968.47
2024-01-15T07:22:04.282Z,98973.16
2024-01-15T07:24:32.655Z,98968.06
2024-01-15T07:27:00.954Z,98979.44
2024-01-15T07:29:29.215Z,98978.94
2024-01-15T07:31:57.616Z,98983.72
2024-01-15T07:34:27.530Z,98979.69
2024-01-15T07:36:55.983Z,98971.47
2024-01-15T07:39:25.965Z,98977.31
2024-01-15T07:41:54.359Z,98982.50
2024-01-15T07:44:22.764Z,98988.78
2024-01-15T07:46:51.026Z,98989.19
2024-01-15T07:49:20.199Z,98988.06
2024-01-15T07:51:50.355Z,98991.81
2024-01-15T07:54:18.766Z,98988.78
2024-01-15T07:56:57.104Z,98995.09
2024-01-15T07:59:25.860Z,99006.72
2024-01-15T08:01:54.477Z,99003.66
2024-01-15T08:04:23.243Z,99000.03
2024-01-15T08:06:53.627Z,99008.22
2024-01-15T08:09:22.025Z,99015.31
2024-01-15T08:11:50.608Z,99012.81
2024-01-15T08:14:20.583Z,99035.38
2024-01-15T08:16:48.903Z,99024.03
2024-01-15T08:19:17.435Z,99028.34
2024-01-15T08:21:46.054Z,99031.75
2024-01-15T08:24:18.065Z,99025.78
2024-01-15T08:26:46.563Z,99029.03
2024-01-15T08:29:14.825Z,99025.88
2024-01-15T08:31:43.311Z,99039.41
2024-01-15T08:34:11.798Z,99037.66
2024-01-15T08:36:40.128Z,99038.25
2024-01-15T08:39:10.507Z,99035.75
2024-01-15T08:41:40.470Z,99020.50
2024-01-15T08:44:08.974Z,99024.09
2024-01-15T08:46:37.793Z,99007.72
2024-01-15T08:49:07.410Z,99000.00
2024-01-15T08:51:36.684Z,98993.97
2024-01-15T08:54:05.172Z,98981.84
2024-01-15T08:56:33.411Z,98979.97
2024-01-15T08:59:03.089Z,98973.34
2024-01-15T09:01:32.269Z,98959.91
2024-01-15T09:04:00.675Z,98959.72
2024-01-15T09:06:29.038Z,98965.47
2024-01-15T09:08:57.456Z,98957.16
2024-01-15T09:11:25.762Z,98945.91
2024-01-15T09:13:54.157Z,98957.34
2024-01-15T09:16:24.097Z,98961.13
2024-01-15T09:18:52.449Z,98946.28
2024-01-15T09:21:20.884Z,98947.63
2024-01-15T09:23:49.248Z,98958.66
2024-01-15T09:26:17.438Z,98951.56
2024-01-15T09:28:45.986Z,98957.69
2024-01-15T09:31:14.363Z,98948.66
2024-01-15T09:33:44.242Z,98940.94
2024-01-15T09:36:12.628Z,98929.72
2024-01-15T09:38:43.003Z,98931.25
2024-01-15T09:41:11.272Z,98939.72
2024-01-15T09:43:41.074Z,98932.91
2024-01-15T09:46:09.822Z,98929.34
2024-01-15T09:48:39.989Z,98915.50
2024-01-15T09:51:11.554Z,98919.78
2024-01-15T09:53:41.567Z,98930.91
2024-01-15T09:56:13.373Z,98907.66
2024-01-15T09:58:43.728Z,98892.53
2024-01-15T10:01:13.583Z,98890.03
2024-01-15T10:03:45.165Z,98892.97
2024-01-15T10:06:22.175Z,98895.66
2024-01-15T10:08:53.258Z,98888.63
2024-01-15T10:11:21.531Z,98880.63
2024-01-15T10:13:53.678Z,98887.44
2024-01-15T10:16:23.215Z,98870.72
2024-01-15T10:18:52.131Z,98876.28
2024-01-15T10:21:22.013Z,98873.59
2024-01-15T10:23:50.495Z,98870.78
2024-01-15T10:26:19.553Z,98850.66
2024-01-15T10:28:47.958Z,98838.69
2024-01-15T10:31:17.282Z,98843.09
2024-01-15T10:33:45.816Z,98836.34
2024-01-15T10:36:14.313Z,98811.47
2024-01-15T10:38:45.169Z,98798.88
2024-01-15T10:41:32.093Z,98799.22
2024-01-15T10:44:00.398Z,98779.69
2024-01-15T10:46:28.793Z,98775.91
2024-01-15T10:48:57.450Z,98768.59
2024-01-15T10:51:27.346Z,98775.16
2024-01-15T10:53:58.854Z,98775.69
2024-01-15T10:56:30.035Z,98781.41
2024-01-15T10:59:00.701Z,98778.19
2024-01-15T11:01:31.191Z,98781.56
2024-01-15T11:04:00.316Z,98777.13
2024-01-15T11:06:31.486Z,98775.72
2024-01-15T11:09:05.074Z,98767.59
2024-01-15T11:11:38.073Z,98756.56
2024-01-15T11:14:07.895Z,98747.13
2024-01-15T11:17:00.591Z,98738.63
2024-01-15T11:19:38.126Z,98737.75
2024-01-15T11:22:07.420Z,98722.56
2024-01-15T11:24:39.208Z,98723.59
2024-01-15T11:27:08.147Z,98725.34
2024-01-15T11:29:37.815Z,98728.81
2024-01-15T11:32:09.684Z,98724.50
2024-01-15T11:34:54.525Z,98708.41
2024-01-15T11:37:24.875Z,98714.16
2024-01-15T11:39:56.243Z,98706.88
2024-01-15T11:42:25.223Z,98712.03
2024-01-15T11:44:53.511Z,98710.03
2024-01-15T11:47:47.394Z,98711.06
2024-01-15T11:50:16.843Z,98702.66
2024-01-15T11:52:54.325Z,98703.78
2024-01-15T11:55:29.674Z,98698.59
2024-01-15T11:58:00.141Z,98706.84
2024-01-15T12:00:28.659Z,98697.09
2024-01-15T12:02:57.309Z,98684.09
2024-01-15T12:05:26.057Z,98672.16
2024-01-15T12:07:54.410Z,98672.31
2024-01-15T12:10:25.320Z,98685.66
2024-01-15T12:13:02.898Z,98694.41
2024-01-15T12:15:32.232Z,98696.16
2024-01-15T12:18:01.911Z,98695.44
2024-01-15T12:20:31.079Z,98688.72
2024-01-15T12:23:02.655Z,98691.69
2024-01-15T12:25:34.929Z,98682.22
2024-01-15T12:28:03.934Z,98674.09
2024-01-15T12:30:33.863Z,98667.63
2024-01-15T12:33:05.337Z,98661.81
2024-01-15T12:35:34.237Z,98651.81
2024-01-15T12:38:04.774Z,98655.19
2024-01-15T12:40:37.250Z,98661.81
2024-01-15T12:43:07.911Z,98664.59
2024-01-15T12:45:37.517Z,98664.75
2024-01-15T12:48:07.458Z,98662.97
2024-01-15T12:50:37.032Z,98668.59
2024-01-15T12:53:05.657Z,98652.34
2024-01-15T12:55:35.806Z,98654.25
2024-01-15T12:58:05.335Z,98651.97
2024-01-15T13:00:33.644Z,98659.56
2024-01-15T13:03:04.833Z,98644.66
2024-01-15T13:05:35.133Z,98646.66
2024-01-15T13:08:04.847Z,98646.28
2024-01-15T13:10:34.530Z,98632.97
2024-01-15T13:13:03.520Z,98630.47
2024-01-15T13:15:32.813Z,98616.16
2024-01-15T13:18:01.541Z,98616.47
2024-01-15T13:20:30.092Z,98607.06
2024-01-15T13:22:58.419Z,98606.69
2024-01-15T13:25:26.728Z,98610.34
2024-01-15T13:27:56.633Z,98613.09
2024-01-15T13:30:24.958Z,98606.50
2024-01-15T13:32:53.782Z,98605.13
2024-01-15T13:35:22.182Z,98609.09
2024-01-15T13:37:50.526Z,98607.56
2024-01-15T13:40:21.389Z,98607.09
2024-01-15T13:42:50.097Z,98606.91
2024-01-15T13:45:21.832Z,98608.69
2024-01-15T13:47:50.178Z,98615.59
2024-01-15T13:50:18.495Z,98604.25
2024-01-15T13:52:46.859Z,98600.03
2024-01-15T13:55:15.237Z,98589.75
2024-01-15T13:57:43.663Z,98592.59
2024-01-15T14:00:13.977Z,98586.81
2024-01-15T14:02:44.012Z,98592.91
2024-01-15T14:05:14.104Z,98588.00
2024-01-15T14:07:42.757Z,98603.16
2024-01-15T14:10:12.451Z,98591.63
2024-01-15T14:12:41.012Z,98585.97
2024-01-15T14:15:10.400Z,98583.31
2024-01-15T14:17:39.754Z,98583.09
2024-01-15T14:20:11.779Z,98573.81
2024-01-15T14:22:40.339Z,98577.09
2024-01-15T14:25:09.795Z,98577.88
2024-01-15T14:27:38.309Z,98579.97
2024-01-15T14:30:09.846Z,98578.88
2024-01-15T14:32:38.429Z,98566.03
2024-01-15T14:35:09.397Z,98553.03
2024-01-15T14:37:39.529Z,98558.09
2024-01-15T14:40:10.827Z,98566.84
2024-01-15T14:42:39.729Z,98568.88
2024-01-15T14:45:13.561Z,98572.19
2024-01-15T14:47:43.351Z,98565.78
2024-01-15T14:50:13.636Z,98563.75
2024-01-15T14:52:47.596Z,98565.69
2024-01-15T14:55:18.858Z,98561.50
2024-01-15T14:57:47.413Z,98543.22
2024-01-15T15:00:18.214Z,98551.25
2024-01-15T15:02:46.949Z,98563.84
2024-01-15T15:05:18.270Z,98568.34
2024-01-15T15:07:48.079Z,98571.19
2024-01-15T15:10:17.118Z,98569.41
2024-01-15T15:12:46.135Z,98574.31
2024-01-15T15:15:18.003Z,98561.97
2024-01-15T15:17:48.918Z,98556.78
2024-01-15T15:20:17.600Z,98568.56
2024-01-15T15:22:48.507Z,98575.88
2024-01-15T15:25:16.956Z,98567.56
2024-01-15T15:27:45.578Z,98560.75
2024-01-15T15:30:14.489Z,98577.44
2024-01-15T15:32:42.941Z,98578.25
2024-01-15T15:35:12.320Z,98576.38
2024-01-15T15:37:40.788Z,98567.88
2024-01-15T15:40:12.675Z,98571.06
2024-01-15T15:42:41.390Z,98562.84
2024-01-15T15:45:10.917Z,98566.63
2024-01-15T15:47:39.947Z,98565.53
2024-01-15T15:50:10.376Z,98575.75
2024-01-15T15:52:38.893Z,98567.25
2024-01-15T15:55:09.231Z,98566.47
2024-01-15T15:57:39.444Z,98565.69
2024-01-15T16:00:09.251Z,98567.38
2024-01-15T16:02:37.734Z,98558.38
2024-01-15T16:05:10.799Z,98572.28
2024-01-15T16:07:39.721Z,98569.59
2024-01-15T16:10:09.105Z,98570.38
2024-01-15T16:12:39.949Z,98565.66
2024-01-15T16:15:20.212Z,98550.13
2024-01-15T16:23:17.093Z,98552.47
2024-01-15T16:23:31.470Z,98558.59
2024-01-15T16:24:04.215Z,98558.06
2024-01-15T16:26:14.798Z,98545.50
2024-01-15T16:28:44.856Z,98541.44
2024-01-15T16:31:13.386Z,98549.66
2024-01-15T16:33:45.304Z,98534.25
2024-01-15T16:36:16.581Z,98530.44
2024-01-15T16:38:45.593Z,98531.28
2024-01-15T16:41:14.996Z,98541.06
2024-01-15T16:43:44.966Z,98545.50
2024-01-15T16:46:13.500Z,98541.50
2024-01-15T16:48:42.126Z,98539.81
2024-01-15T16:51:11.171Z,98534.81
2024-01-15T16:53:39.948Z,98550.03
2024-01-15T16:56:08.500Z,98548.50
2024-01-15T16:58:36.810Z,98536.38
2024-01-15T17:01:09.512Z,98531.97
2024-01-15T17:03:38.066Z,98529.78
2024-01-15T17:06:06.769Z,98533.41
2024-01-15T17:08:35.277Z,98526.03
2024-01-15T17:11:04.338Z,98514.56
2024-01-15T17:13:34.164Z,98526.53
2024-01-15T17:16:02.490Z,98527.78
2024-01-15T17:18:32.391Z,98514.09
2024-01-15T17:21:03.482Z,98518.22
2024-01-15T17:23:31.852Z,98518.81
2024-01-15T17:26:00.505Z,98515.88
2024-01-15T17:28:28.737Z,98498.75
2024-01-15T17:30:57.166Z,98500.94
2024-01-15T17:33:25.698Z,98498.59
2024-01-15T17:35:57.582Z,98494.19
2024-01-15T17:38:26.293Z,98494.19
2024-01-15T17:40:54.760Z,98487.59
2024-01-15T17:43:23.826Z,98485.56
2024-01-15T17:45:53.939Z,98485.41
2024-01-15T17:48:22.396Z,98489.16
2024-01-15T17:50:52.657Z,98493.25
2024-01-15T17:53:22.644Z,98490.44
2024-01-15T17:55:51.149Z,98487.13
2024-01-15T17:58:19.436Z,98497.19
2024-01-15T18:00:47.796Z,98492.78
2024-01-15T18:03:16.202Z,98489.50
2024-01-15T18:05:44.600Z,98478.19
2024-01-15T18:08:13.542Z,98487.63
2024-01-15T18:10:43.511Z,98490.09
2024-01-15T18:13:12.314Z,98480.38
2024-01-15T18:15:41.242Z,98489.47
2024-01-15T18:18:10.821Z,98479.91
2024-01-15T18:20:39.837Z,98474.09
2024-01-15T18:23:08.368Z,98467.19
2024-01-15T18:25:36.869Z,98457.28
2024-01-15T18:28:07.585Z,98461.22
2024-01-15T18:30:36.062Z,98465.78
2024-01-15T18:33:06.456Z,98462.31
2024-01-15T18:35:34.896Z,98460.91
2024-01-15T18:38:03.474Z,98450.25
2024-01-15T18:40:36.066Z,98449.13
2024-01-15T18:43:04.438Z,98454.78
2024-01-15T18:45:34.169Z,98447.09
2024-01-15T18:48:02.533Z,98446.31
2024-01-15T18:50:31.435Z,98444.72
2024-01-15T18:53:00.540Z,98439.25
2024-01-15T18:55:28.839Z,98440.97
2024-01-15T18:58:00.548Z,98437.19
2024-01-15T19:00:29.199Z,98437.19
2024-01-15T19:02:59.768Z,98437.97
2024-01-15T19:05:27.213Z,98430.78
2024-01-15T19:07:55.496Z,98427.75
2024-01-15T19:10:23.670Z,98435.94
2024-01-15T19:12:51.956Z,98428.09
2024-01-15T19:15:21.329Z,98424.78
2024-01-15T19:17:50.783Z,98422.88
2024-01-15T19:20:20.753Z,98426.84
2024-01-15T19:22:50.048Z,98421.16
2024-01-15T19:25:18.562Z,98417.88
2024-01-15T19:27:47.674Z,98416.44
2024-01-15T19:30:17.905Z,98412.19
2024-01-15T19:32:46.534Z,98414.97
2024-01-15T19:35:15.180Z,98407.28
2024-01-15T19:37:45.448Z,98405.16
2024-01-15T19:40:15.456Z,98403.88
2024-01-15T19:42:44.010Z,98399.78
2024-01-15T19:45:12.357Z,98396.50
2024-01-15T19:47:40.853Z,98393.84
2024-01-15T19:50:10.418Z,98383.03
2024-01-15T19:52:40.692Z,98391.50
2024-01-15T19:55:11.115Z,98382.34
2024-01-15T19:57:39.926Z,98386.38
2024-01-15T20:00:09.956Z,98377.00
2024-01-15T20:02:38.551Z,98381.00
2024-01-15T20:05:10.501Z,98380.22
2024-01-15T20:07:39.280Z,98383.59
2024-01-15T20:10:11.125Z,98374.38
2024-01-15T20:12:41.003Z,98380.50
2024-01-15T20:15:10.041Z,98379.91
2024-01-15T20:17:38.639Z,98381.00
2024-01-15T20:20:12.170Z,98376.31
2024-01-15T20:22:40.934Z,98379.47
2024-01-15T20:25:09.744Z,98382.00
2024-01-15T20:27:40.661Z,98367.28
2024-01-15T20:30:11.923Z,98356.25
2024-01-15T20:32:40.931Z,98365.50
2024-01-15T20:35:12.751Z,98369.59
2024-01-15T20:37:41.063Z,98359.53
2024-01-15T20:40:10.589Z,98358.91
2024-01-15T20:42:39.699Z,98348.63
2024-01-15T20:45:11.860Z,98345.09
2024-01-15T20:47:40.151Z,98344.88
2024-01-15T20:50:10.226Z,98344.75
2024-01-15T20:52:38.643Z,98338.84
2024-01-15T20:55:09.726Z,98336.84
2024-01-15T20:57:38.320Z,98332.94
2024-01-15T21:00:09.400Z,98335.72
2024-01-15T21:02:40.109Z,98334.78
2024-01-15T21:05:10.016Z,98342.94
2024-01-15T21:07:39.476Z,98335.09
2024-01-15T21:10:08.853Z,98331.97
2024-01-15T21:12:37.277Z,98332.88
2024-01-15T21:15:06.033Z,98331.00
2024-01-15T21:17:34.497Z,98332.28
2024-01-15T21:20:08.879Z,98325.34
2024-01-15T21:22:37.222Z,98328.63
2024-01-15T21:25:06.203Z,98333.22
2024-01-15T21:27:35.459Z,98327.44
2024-01-15T21:30:03.776Z,98322.13
2024-01-15T21:32:32.191Z,98314.44
2024-01-15T21:35:00.762Z,98319.00
2024-01-15T21:37:30.413Z,98328.28
2024-01-15T21:39:58.718Z,98333.72
2024-01-15T21:42:27.328Z,98327.56
2024-01-15T21:44:55.734Z,98326.47
2024-01-15T21:47:24.838Z,98313.91
2024-01-15T21:49:53.225Z,98309.66
2024-01-15T21:52:21.990Z,98312.34
2024-01-15T21:54:51.878Z,98312.34
2024-01-15T21:57:20.312Z,98306.72
2024-01-15T21:59:48.632Z,98306.53
2024-01-15T22:02:17.194Z,98302.38
2024-01-15T22:04:45.740Z,98294.69
2024-01-15T22:07:14.089Z,98303.00
2024-01-15T22:09:43.007Z,98297.81
2024-01-15T22:12:12.803Z,98303.28
2024-01-15T22:14:41.190Z,98290.75
2024-01-15T22:17:09.509Z,98293.75
2024-01-15T22:19:37.854Z,98296.56
2024-01-15T22:22:06.459Z,98295.00
2024-01-15T22:24:34.894Z,98288.72
2024-01-15T22:27:05.698Z,98289.50
2024-01-15T22:29:37.675Z,98283.69
2024-01-15T22:32:06.476Z,98270.72
2024-01-15T22:34:34.803Z,98274.28
2024-01-15T22:37:03.021Z,98270.06
2024-01-15T22:39:31.309Z,98268.34
2024-01-15T22:42:00.365Z,98270.25
2024-01-15T22:44:28.966Z,98269.59
2024-01-15T22:46:59.153Z,98262.66
2024-01-15T22:49:27.968Z,98262.50
2024-01-15T22:51:56.727Z,98248.53
2024-01-15T22:54:25.071Z,98237.47
2024-01-15T22:56:53.386Z,98236.84
2024-01-15T22:59:23.388Z,98231.03
2024-01-15T23:01:51.850Z,98217.22
2024-01-15T23:04:21.488Z,98218.63
2024-01-15T23:06:49.673Z,98221.78
2024-01-15T23:09:17.917Z,98221.63
2024-01-15T23:11:50.536Z,98220.81
2024-01-15T23:14:18.804Z,98217.19
2024-01-15T23:16:47.087Z,98219.22
2024-01-15T23:19:15.687Z,98209.03
2024-01-15T23:21:46.023Z,98212.50
2024-01-15T23:24:14.368Z,98213.69
2024-01-15T23:26:42.704Z,98212.06
2024-01-15T23:29:10.999Z,98215.38
2024-01-15T23:31:42.003Z,98212.59
2024-01-15T23:34:10.765Z,98228.28
2024-01-15T23:36:39.503Z,98218.13
2024-01-15T23:39:09.203Z,98211.34
2024-01-15T23:41:37.623Z,98212.31
2024-01-15T23:44:06.410Z,98203.53
2024-01-15T23:46:34.965Z,98214.06
2024-01-15T23:49:03.721Z,98201.03
2024-01-15T23:51:32.469Z,98208.06
2024-01-15T23:54:00.736Z,98201.91
2024-01-15T23:56:30.821Z,98201.13
2024-01-15T23:58:59.112Z,98199.28
